sensor_id;sensor_type;location;lat;lon;timestamp;pressure;altitude;pressure_sealevel;temperature;humidity
59194;BME280;44967;48.598;15.650;2023-07-13T00:01:48;97964.78;;;21.40;65.90
59194;BME280;44967;48.598;15.650;2023-07-13T00:04:20;97945.09;;;21.61;65.55
59194;BME280;44967;48.598;15.650;2023-07-13T00:06:46;97944.88;;;21.65;65.46
59194;BME280;44967;48.598;15.650;2023-07-13T00:09:14;97939.63;;;21.52;65.86
59194;BME280;44967;48.598;15.650;2023-07-13T00:11:40;97936.91;;;21.63;65.66
59194;BME280;44967;48.598;15.650;2023-07-13T00:14:07;97928.94;;;21.61;65.68
59194;BME280;44967;48.598;15.650;2023-07-13T00:16:35;97923.09;;;21.68;65.46
59194;BME280;44967;48.598;15.650;2023-07-13T00:19:02;97923.78;;;21.81;65.15
59194;BME280;44967;48.598;15.650;2023-07-13T00:21:28;97917.78;;;21.77;65.11
59194;BME280;44967;48.598;15.650;2023-07-13T00:23:53;97913.44;;;21.54;66.01
59194;BME280;44967;48.598;15.650;2023-07-13T00:26:19;97910.75;;;21.54;66.07
59194;BME280;44967;48.598;15.650;2023-07-13T00:28:44;97918.94;;;21.63;65.49
59194;BME280;44967;48.598;15.650;2023-07-13T00:31:12;97918.78;;;21.65;65.42
59194;BME280;44967;48.598;15.650;2023-07-13T00:33:40;97921.63;;;21.63;65.52
59194;BME280;44967;48.598;15.650;2023-07-13T00:36:06;97912.94;;;21.71;65.54
59194;BME280;44967;48.598;15.650;2023-07-13T00:38:32;97907.91;;;21.78;65.29
59194;BME280;44967;48.598;15.650;2023-07-13T00:40:59;97916.97;;;21.77;65.36
59194;BME280;44967;48.598;15.650;2023-07-13T00:43:27;97912.94;;;21.71;65.41
59194;BME280;44967;48.598;15.650;2023-07-13T00:48:21;97908.03;;;21.65;65.59
59194;BME280;44967;48.598;15.650;2023-07-13T00:50:52;97909.28;;;21.72;65.62
59194;BME280;44967;48.598;15.650;2023-07-13T00:53:20;97892.38;;;21.70;65.71
59194;BME280;44967;48.598;15.650;2023-07-13T00:55:47;97892.75;;;21.77;65.40
59194;BME280;44967;48.598;15.650;2023-07-13T00:58:15;97888.41;;;21.42;66.29
59194;BME280;44967;48.598;15.650;2023-07-13T01:00:41;97868.84;;;21.18;67.40
59194;BME280;44967;48.598;15.650;2023-07-13T01:03:07;97859.22;;;21.27;66.92
59194;BME280;44967;48.598;15.650;2023-07-13T01:05:35;97862.25;;;21.22;66.78
59194;BME280;44967;48.598;15.650;2023-07-13T01:08:02;97866.53;;;21.13;67.36
59194;BME280;44967;48.598;15.650;2023-07-13T01:10:35;97856.16;;;21.20;67.21
59194;BME280;44967;48.598;15.650;2023-07-13T01:13:10;97860.44;;;21.23;67.02
59194;BME280;44967;48.598;15.650;2023-07-13T01:18:09;97860.56;;;21.32;67.68
59194;BME280;44967;48.598;15.650;2023-07-13T01:20:36;97855.19;;;21.32;67.10
59194;BME280;44967;48.598;15.650;2023-07-13T01:23:05;97857.63;;;21.35;67.05
59194;BME280;44967;48.598;15.650;2023-07-13T01:25:31;97871.66;;;21.39;66.83
59194;BME280;44967;48.598;15.650;2023-07-13T01:27:57;97867.16;;;21.28;66.99
59194;BME280;44967;48.598;15.650;2023-07-13T01:30:23;97870.94;;;21.37;66.81
59194;BME280;44967;48.598;15.650;2023-07-13T01:32:49;97867.63;;;21.44;66.60
59194;BME280;44967;48.598;15.650;2023-07-13T01:35:15;97863.47;;;21.40;66.97
59194;BME280;44967;48.598;15.650;2023-07-13T01:37:42;97849.81;;;21.21;67.62
59194;BME280;44967;48.598;15.650;2023-07-13T01:40:08;97856.63;;;21.14;68.14
59194;BME280;44967;48.598;15.650;2023-07-13T01:42:34;97854.19;;;21.11;68.16
59194;BME280;44967;48.598;15.650;2023-07-13T01:45:00;97853.72;;;21.17;67.85
59194;BME280;44967;48.598;15.650;2023-07-13T01:47:25;97855.28;;;21.08;68.64
59194;BME280;44967;48.598;15.650;2023-07-13T01:49:51;97850.56;;;21.12;68.23
59194;BME280;44967;48.598;15.650;2023-07-13T01:52:17;97864.91;;;21.11;67.95
59194;BME280;44967;48.598;15.650;2023-07-13T01:54:43;97863.22;;;21.10;67.64
59194;BME280;44967;48.598;15.650;2023-07-13T01:57:08;97866.91;;;21.09;67.77
59194;BME280;44967;48.598;15.650;2023-07-13T01:59:34;97866.03;;;21.08;67.97
59194;BME280;44967;48.598;15.650;2023-07-13T02:02:00;97872.06;;;21.12;67.85
59194;BME280;44967;48.598;15.650;2023-07-13T02:04:26;97869.09;;;21.26;67.59
59194;BME280;44967;48.598;15.650;2023-07-13T02:06:51;97872.78;;;21.14;67.90
59194;BME280;44967;48.598;15.650;2023-07-13T02:09:17;97872.13;;;21.10;67.84
59194;BME280;44967;48.598;15.650;2023-07-13T02:11:43;97878.91;;;21.16;67.62
59194;BME280;44967;48.598;15.650;2023-07-13T02:14:08;97872.28;;;21.09;67.84
59194;BME280;44967;48.598;15.650;2023-07-13T02:16:34;97894.84;;;20.95;68.64
59194;BME280;44967;48.598;15.650;2023-07-13T02:19:00;97888.59;;;20.95;68.37
59194;BME280;44967;48.598;15.650;2023-07-13T02:21:25;97883.69;;;20.66;69.37
59194;BME280;44967;48.598;15.650;2023-07-13T02:23:51;97891.38;;;20.60;69.75
59194;BME280;44967;48.598;15.650;2023-07-13T02:26:18;97894.81;;;20.73;69.34
59194;BME280;44967;48.598;15.650;2023-07-13T02:28:44;97904.25;;;20.90;68.78
59194;BME280;44967;48.598;15.650;2023-07-13T02:31:13;97927.06;;;20.95;68.65
59194;BME280;44967;48.598;15.650;2023-07-13T02:33:39;97950.03;;;20.88;68.61
59194;BME280;44967;48.598;15.650;2023-07-13T02:36:05;97966.38;;;20.85;69.24
59194;BME280;44967;48.598;15.650;2023-07-13T02:38:32;97957.22;;;20.88;68.23
59194;BME280;44967;48.598;15.650;2023-07-13T02:40:59;97963.63;;;21.09;66.61
59194;BME280;44967;48.598;15.650;2023-07-13T02:43:25;97971.22;;;21.15;66.16
59194;BME280;44967;48.598;15.650;2023-07-13T02:45:51;97972.34;;;21.24;65.38
59194;BME280;44967;48.598;15.650;2023-07-13T02:48:17;97975.53;;;21.29;64.61
59194;BME280;44967;48.598;15.650;2023-07-13T02:50:44;97993.25;;;21.42;63.50
59194;BME280;44967;48.598;15.650;2023-07-13T02:53:10;98000.97;;;21.58;63.30
59194;BME280;44967;48.598;15.650;2023-07-13T02:55:36;97986.66;;;21.57;63.18
59194;BME280;44967;48.598;15.650;2023-07-13T02:58:02;97997.91;;;21.62;62.89
59194;BME280;44967;48.598;15.650;2023-07-13T03:00:27;97993.88;;;21.68;62.93
59194;BME280;44967;48.598;15.650;2023-07-13T03:02:54;97993.97;;;21.78;62.88
59194;BME280;44967;48.598;15.650;2023-07-13T03:05:25;97990.06;;;21.82;62.79
59194;BME280;44967;48.598;15.650;2023-07-13T03:07:50;98009.25;;;21.77;63.29
59194;BME280;44967;48.598;15.650;2023-07-13T03:10:16;98005.34;;;21.81;62.91
59194;BME280;44967;48.598;15.650;2023-07-13T03:12:42;98028.34;;;21.85;63.30
59194;BME280;44967;48.598;15.650;2023-07-13T03:15:08;98025.19;;;21.80;64.19
59194;BME280;44967;48.598;15.650;2023-07-13T03:17:34;98033.00;;;21.83;64.06
59194;BME280;44967;48.598;15.650;2023-07-13T03:20:00;98041.53;;;21.77;64.65
59194;BME280;44967;48.598;15.650;2023-07-13T03:22:26;98047.44;;;21.71;65.55
59194;BME280;44967;48.598;15.650;2023-07-13T03:24:51;98048.16;;;21.73;68.23
59194;BME280;44967;48.598;15.650;2023-07-13T03:27:17;98053.91;;;21.69;67.22
59194;BME280;44967;48.598;15.650;2023-07-13T03:29:43;98048.03;;;21.75;66.86
59194;BME280;44967;48.598;15.650;2023-07-13T03:32:09;98046.09;;;21.77;66.34
59194;BME280;44967;48.598;15.650;2023-07-13T03:34:35;98044.84;;;21.70;66.41
59194;BME280;44967;48.598;15.650;2023-07-13T03:37:01;98040.31;;;21.70;67.35
59194;BME280;44967;48.598;15.650;2023-07-13T03:39:26;98041.91;;;21.61;68.25
59194;BME280;44967;48.598;15.650;2023-07-13T03:41:52;98038.34;;;21.61;69.51
59194;BME280;44967;48.598;15.650;2023-07-13T03:44:19;98029.94;;;21.43;68.75
59194;BME280;44967;48.598;15.650;2023-07-13T03:46:45;98024.69;;;21.53;69.09
59194;BME280;44967;48.598;15.650;2023-07-13T03:49:11;98027.25;;;21.43;69.72
59194;BME280;44967;48.598;15.650;2023-07-13T03:51:37;98031.41;;;21.47;70.16
59194;BME280;44967;48.598;15.650;2023-07-13T03:54:03;98033.59;;;21.42;70.47
59194;BME280;44967;48.598;15.650;2023-07-13T03:56:29;98031.72;;;21.21;71.95
59194;BME280;44967;48.598;15.650;2023-07-13T03:58:56;98035.44;;;21.07;72.89
59194;BME280;44967;48.598;15.650;2023-07-13T04:01:23;98033.34;;;20.99;73.38
59194;BME280;44967;48.598;15.650;2023-07-13T04:03:51;98036.72;;;20.90;73.71
59194;BME280;44967;48.598;15.650;2023-07-13T04:06:27;98031.72;;;20.86;73.35
59194;BME280;44967;48.598;15.650;2023-07-13T04:08:57;98034.53;;;20.95;73.47
59194;BME280;44967;48.598;15.650;2023-07-13T04:11:25;98033.81;;;20.93;73.36
59194;BME280;44967;48.598;15.650;2023-07-13T04:13:51;98030.63;;;20.88;73.84
59194;BME280;44967;48.598;15.650;2023-07-13T04:16:18;98035.31;;;20.97;73.40
59194;BME280;44967;48.598;15.650;2023-07-13T04:18:45;98037.00;;;20.98;72.41
59194;BME280;44967;48.598;15.650;2023-07-13T04:21:12;98035.19;;;21.10;71.70
59194;BME280;44967;48.598;15.650;2023-07-13T04:23:38;98034.88;;;21.14;71.87
59194;BME280;44967;48.598;15.650;2023-07-13T04:26:04;98035.00;;;21.13;71.67
59194;BME280;44967;48.598;15.650;2023-07-13T04:28:30;98032.19;;;21.14;72.43
59194;BME280;44967;48.598;15.650;2023-07-13T04:30:58;98029.94;;;21.08;72.11
59194;BME280;44967;48.598;15.650;2023-07-13T04:33:24;98038.13;;;21.07;72.06
59194;BME280;44967;48.598;15.650;2023-07-13T04:35:51;98025.44;;;21.09;72.18
59194;BME280;44967;48.598;15.650;2023-07-13T04:38:27;98017.16;;;21.12;72.18
59194;BME280;44967;48.598;15.650;2023-07-13T04:40:56;98020.72;;;21.12;72.67
59194;BME280;44967;48.598;15.650;2023-07-13T04:43:23;98014.47;;;21.12;72.26
59194;BME280;44967;48.598;15.650;2023-07-13T04:45:50;98013.31;;;21.03;72.69
59194;BME280;44967;48.598;15.650;2023-07-13T04:48:16;98012.34;;;21.04;72.31
59194;BME280;44967;48.598;15.650;2023-07-13T04:50:41;98019.28;;;20.96;72.52
59194;BME280;44967;48.598;15.650;2023-07-13T04:53:10;98016.25;;;21.00;72.74
59194;BME280;44967;48.598;15.650;2023-07-13T04:55:36;98015.38;;;21.00;72.45
59194;BME280;44967;48.598;15.650;2023-07-13T04:58:02;98001.47;;;21.06;72.40
59194;BME280;44967;48.598;15.650;2023-07-13T05:00:29;98009.19;;;21.10;72.10
59194;BME280;44967;48.598;15.650;2023-07-13T05:02:57;97996.59;;;21.11;72.47
59194;BME280;44967;48.598;15.650;2023-07-13T05:05:26;97999.16;;;21.01;72.73
59194;BME280;44967;48.598;15.650;2023-07-13T05:07:53;97985.28;;;21.19;72.16
59194;BME280;44967;48.598;15.650;2023-07-13T05:10:19;97994.97;;;21.32;71.60
59194;BME280;44967;48.598;15.650;2023-07-13T05:12:45;97997.41;;;21.35;71.94
59194;BME280;44967;48.598;15.650;2023-07-13T05:15:11;97988.72;;;21.43;71.56
59194;BME280;44967;48.598;15.650;2023-07-13T05:17:37;97985.56;;;21.49;71.62
59194;BME280;44967;48.598;15.650;2023-07-13T05:20:06;97988.25;;;21.60;71.10
59194;BME280;44967;48.598;15.650;2023-07-13T05:22:32;97983.22;;;21.78;71.10
59194;BME280;44967;48.598;15.650;2023-07-13T05:24:57;97984.44;;;21.85;70.09
59194;BME280;44967;48.598;15.650;2023-07-13T05:27:23;97990.09;;;22.04;70.61
59194;BME280;44967;48.598;15.650;2023-07-13T05:29:49;97982.38;;;21.99;71.28
59194;BME280;44967;48.598;15.650;2023-07-13T05:32:15;97981.38;;;22.12;70.29
59194;BME280;44967;48.598;15.650;2023-07-13T05:34:41;97976.59;;;22.15;70.25
59194;BME280;44967;48.598;15.650;2023-07-13T05:37:07;97974.13;;;22.23;69.91
59194;BME280;44967;48.598;15.650;2023-07-13T05:39:33;97975.56;;;22.38;68.19
59194;BME280;44967;48.598;15.650;2023-07-13T05:41:59;97974.38;;;22.52;68.26
59194;BME280;44967;48.598;15.650;2023-07-13T05:44:24;97974.78;;;22.47;64.07
59194;BME280;44967;48.598;15.650;2023-07-13T05:46:50;97980.13;;;22.59;64.56
59194;BME280;44967;48.598;15.650;2023-07-13T05:49:16;97985.50;;;22.59;66.11
59194;BME280;44967;48.598;15.650;2023-07-13T05:51:42;97982.56;;;22.62;66.14
59194;BME280;44967;48.598;15.650;2023-07-13T05:54:07;97978.16;;;22.61;66.70
59194;BME280;44967;48.598;15.650;2023-07-13T05:56:33;97976.75;;;22.45;66.66
59194;BME280;44967;48.598;15.650;2023-07-13T05:58:59;97987.19;;;22.39;66.63
59194;BME280;44967;48.598;15.650;2023-07-13T06:01:24;97999.16;;;22.46;64.82
59194;BME280;44967;48.598;15.650;2023-07-13T06:03:50;97997.16;;;22.59;64.17
59194;BME280;44967;48.598;15.650;2023-07-13T06:06:16;97997.00;;;22.61;63.24
59194;BME280;44967;48.598;15.650;2023-07-13T06:08:43;98001.41;;;22.62;62.19
59194;BME280;44967;48.598;15.650;2023-07-13T06:11:16;98013.16;;;22.72;61.40
59194;BME280;44967;48.598;15.650;2023-07-13T06:13:43;98010.81;;;22.78;61.78
59194;BME280;44967;48.598;15.650;2023-07-13T06:16:09;98007.59;;;22.84;62.12
59194;BME280;44967;48.598;15.650;2023-07-13T06:18:35;98007.47;;;22.86;61.06
59194;BME280;44967;48.598;15.650;2023-07-13T06:21:06;98022.13;;;22.93;59.78
59194;BME280;44967;48.598;15.650;2023-07-13T06:23:32;98018.44;;;22.94;59.75
59194;BME280;44967;48.598;15.650;2023-07-13T06:25:58;98041.91;;;22.82;60.31
59194;BME280;44967;48.598;15.650;2023-07-13T06:28:24;98027.84;;;22.79;59.74
59194;BME280;44967;48.598;15.650;2023-07-13T06:30:49;98040.72;;;22.96;59.63
59194;BME280;44967;48.598;15.650;2023-07-13T06:33:15;98044.44;;;22.95;60.09
59194;BME280;44967;48.598;15.650;2023-07-13T06:35:41;98051.28;;;22.88;59.06
59194;BME280;44967;48.598;15.650;2023-07-13T06:38:06;98040.81;;;23.06;59.31
59194;BME280;44967;48.598;15.650;2023-07-13T06:40:32;98047.97;;;23.16;59.11
59194;BME280;44967;48.598;15.650;2023-07-13T06:42:58;98047.59;;;23.21;59.27
59194;BME280;44967;48.598;15.650;2023-07-13T06:45:24;98047.00;;;23.17;57.54
59194;BME280;44967;48.598;15.650;2023-07-13T06:47:49;98045.09;;;23.29;57.75
59194;BME280;44967;48.598;15.650;2023-07-13T06:50:15;98045.41;;;23.35;57.84
59194;BME280;44967;48.598;15.650;2023-07-13T06:52:41;98038.97;;;23.47;57.25
59194;BME280;44967;48.598;15.650;2023-07-13T06:55:07;98030.97;;;23.57;56.63
59194;BME280;44967;48.598;15.650;2023-07-13T06:57:33;98030.81;;;23.59;56.92
59194;BME280;44967;48.598;15.650;2023-07-13T07:00:00;98031.41;;;23.62;56.38
59194;BME280;44967;48.598;15.650;2023-07-13T07:02:25;98040.53;;;23.71;56.64
59194;BME280;44967;48.598;15.650;2023-07-13T07:04:51;98049.63;;;23.70;56.60
59194;BME280;44967;48.598;15.650;2023-07-13T07:07:17;98053.84;;;23.63;56.16
59194;BME280;44967;48.598;15.650;2023-07-13T07:09:42;98044.53;;;23.76;56.41
59194;BME280;44967;48.598;15.650;2023-07-13T07:12:08;98040.09;;;23.66;56.54
59194;BME280;44967;48.598;15.650;2023-07-13T07:14:35;98044.16;;;23.81;56.59
59194;BME280;44967;48.598;15.650;2023-07-13T07:17:01;98045.72;;;23.83;55.85
59194;BME280;44967;48.598;15.650;2023-07-13T07:19:30;98045.19;;;23.89;55.68
59194;BME280;44967;48.598;15.650;2023-07-13T07:21:56;98049.88;;;23.67;56.39
59194;BME280;44967;48.598;15.650;2023-07-13T07:24:22;98043.75;;;23.85;55.85
59194;BME280;44967;48.598;15.650;2023-07-13T07:26:47;98041.72;;;23.78;55.89
59194;BME280;44967;48.598;15.650;2023-07-13T07:29:13;98038.34;;;23.85;55.38
59194;BME280;44967;48.598;15.650;2023-07-13T07:31:38;98037.22;;;23.88;55.86
59194;BME280;44967;48.598;15.650;2023-07-13T07:34:04;98035.25;;;24.00;56.67
59194;BME280;44967;48.598;15.650;2023-07-13T07:36:30;98038.53;;;24.03;55.94
59194;BME280;44967;48.598;15.650;2023-07-13T07:38:55;98039.81;;;23.99;55.90
59194;BME280;44967;48.598;15.650;2023-07-13T07:41:21;98055.53;;;23.94;55.28
59194;BME280;44967;48.598;15.650;2023-07-13T07:43:47;98044.53;;;24.07;55.09
59194;BME280;44967;48.598;15.650;2023-07-13T07:46:12;98052.03;;;24.03;55.28
59194;BME280;44967;48.598;15.650;2023-07-13T07:48:38;98051.34;;;24.01;55.28
59194;BME280;44967;48.598;15.650;2023-07-13T07:51:04;98050.44;;;24.21;54.45
59194;BME280;44967;48.598;15.650;2023-07-13T07:53:30;98052.69;;;24.16;54.63
59194;BME280;44967;48.598;15.650;2023-07-13T07:55:55;98049.94;;;24.47;54.09
59194;BME280;44967;48.598;15.650;2023-07-13T07:58:21;98055.38;;;24.66;54.21
59194;BME280;44967;48.598;15.650;2023-07-13T08:00:47;98058.22;;;24.74;54.34
59194;BME280;44967;48.598;15.650;2023-07-13T08:03:13;98057.13;;;25.05;53.35
59194;BME280;44967;48.598;15.650;2023-07-13T08:05:38;98054.88;;;25.20;51.75
59194;BME280;44967;48.598;15.650;2023-07-13T08:08:04;98062.25;;;24.99;52.35
59194;BME280;44967;48.598;15.650;2023-07-13T08:10:30;98055.56;;;25.03;53.41
59194;BME280;44967;48.598;15.650;2023-07-13T08:12:56;98059.34;;;24.81;52.68
59194;BME280;44967;48.598;15.650;2023-07-13T08:15:22;98074.63;;;25.01;52.64
59194;BME280;44967;48.598;15.650;2023-07-13T08:17:48;98067.38;;;25.21;51.51
59194;BME280;44967;48.598;15.650;2023-07-13T08:20:14;98076.75;;;25.46;50.40
59194;BME280;44967;48.598;15.650;2023-07-13T08:22:40;98087.25;;;25.87;50.13
59194;BME280;44967;48.598;15.650;2023-07-13T08:25:06;98079.38;;;25.84;49.54
59194;BME280;44967;48.598;15.650;2023-07-13T08:27:32;98082.03;;;25.66;50.43
59194;BME280;44967;48.598;15.650;2023-07-13T08:29:58;98092.06;;;25.93;49.40
59194;BME280;44967;48.598;15.650;2023-07-13T08:32:24;98083.81;;;27.22;46.96
59194;BME280;44967;48.598;15.650;2023-07-13T08:34:50;98088.00;;;27.16;46.95
59194;BME280;44967;48.598;15.650;2023-07-13T08:37:19;98088.09;;;26.79;45.98
59194;BME280;44967;48.598;15.650;2023-07-13T08:39:45;98072.13;;;26.58;46.52
59194;BME280;44967;48.598;15.650;2023-07-13T08:44:56;98079.84;;;26.53;47.16
59194;BME280;44967;48.598;15.650;2023-07-13T08:47:27;98078.22;;;25.96;48.24
59194;BME280;44967;48.598;15.650;2023-07-13T08:49:55;98085.47;;;26.05;48.13
59194;BME280;44967;48.598;15.650;2023-07-13T08:52:35;98087.13;;;26.16;48.21
59194;BME280;44967;48.598;15.650;2023-07-13T08:55:11;98083.16;;;26.10;47.02
59194;BME280;44967;48.598;15.650;2023-07-13T08:57:42;98093.38;;;26.16;46.88
59194;BME280;44967;48.598;15.650;2023-07-13T09:00:12;98090.56;;;26.08;46.55
59194;BME280;44967;48.598;15.650;2023-07-13T09:02:59;98095.22;;;26.90;44.85
59194;BME280;44967;48.598;15.650;2023-07-13T09:05:33;98098.69;;;27.35;42.66
59194;BME280;44967;48.598;15.650;2023-07-13T09:15:44;98097.75;;;28.81;39.36
59194;BME280;44967;48.598;15.650;2023-07-13T09:18:19;98092.19;;;28.57;39.85
59194;BME280;44967;48.598;15.650;2023-07-13T09:23:23;98104.72;;;29.58;36.71
59194;BME280;44967;48.598;15.650;2023-07-13T09:25:54;98102.91;;;29.09;36.33
59194;BME280;44967;48.598;15.650;2023-07-13T09:28:29;98118.16;;;28.43;37.46
59194;BME280;44967;48.598;15.650;2023-07-13T09:31:16;98117.00;;;27.94;36.16
59194;BME280;44967;48.598;15.650;2023-07-13T09:33:43;98111.22;;;27.97;37.18
59194;BME280;44967;48.598;15.650;2023-07-13T09:36:21;98100.16;;;28.08;35.94
59194;BME280;44967;48.598;15.650;2023-07-13T09:38:53;98102.44;;;28.03;36.78
59194;BME280;44967;48.598;15.650;2023-07-13T09:41:51;98103.66;;;28.69;34.75
59194;BME280;44967;48.598;15.650;2023-07-13T09:44:34;98107.13;;;28.79;34.99
59194;BME280;44967;48.598;15.650;2023-07-13T09:47:01;98108.31;;;28.84;35.04
59194;BME280;44967;48.598;15.650;2023-07-13T09:49:35;98107.63;;;28.82;34.41
59194;BME280;44967;48.598;15.650;2023-07-13T09:52:06;98114.84;;;28.66;34.97
59194;BME280;44967;48.598;15.650;2023-07-13T09:54:35;98109.94;;;28.27;35.72
59194;BME280;44967;48.598;15.650;2023-07-13T09:57:03;98125.84;;;28.22;35.59
59194;BME280;44967;48.598;15.650;2023-07-13T09:59:32;98113.50;;;28.28;35.53
59194;BME280;44967;48.598;15.650;2023-07-13T10:01:58;98115.34;;;28.01;35.64
59194;BME280;44967;48.598;15.650;2023-07-13T10:04:32;98124.47;;;28.44;36.28
59194;BME280;44967;48.598;15.650;2023-07-13T10:07:09;98115.19;;;28.29;36.07
59194;BME280;44967;48.598;15.650;2023-07-13T10:09:35;98126.34;;;28.18;36.10
59194;BME280;44967;48.598;15.650;2023-07-13T10:12:01;98126.53;;;28.16;35.39
59194;BME280;44967;48.598;15.650;2023-07-13T10:14:27;98112.09;;;27.98;35.16
59194;BME280;44967;48.598;15.650;2023-07-13T10:16:59;98119.94;;;28.01;36.04
59194;BME280;44967;48.598;15.650;2023-07-13T10:19:32;98123.88;;;28.06;36.31
59194;BME280;44967;48.598;15.650;2023-07-13T10:22:25;98117.19;;;28.19;36.50
59194;BME280;44967;48.598;15.650;2023-07-13T10:24:54;98130.53;;;28.38;35.88
59194;BME280;44967;48.598;15.650;2023-07-13T10:27:34;98134.66;;;28.50;36.51
59194;BME280;44967;48.598;15.650;2023-07-13T10:32:35;98132.03;;;28.06;36.57
59194;BME280;44967;48.598;15.650;2023-07-13T10:35:01;98132.84;;;28.25;36.99
59194;BME280;44967;48.598;15.650;2023-07-13T10:37:42;98115.44;;;28.77;35.42
59194;BME280;44967;48.598;15.650;2023-07-13T10:40:14;98114.69;;;29.17;35.16
59194;BME280;44967;48.598;15.650;2023-07-13T10:42:45;98121.81;;;29.10;35.50
59194;BME280;44967;48.598;15.650;2023-07-13T10:45:17;98129.72;;;28.79;36.08
59194;BME280;44967;48.598;15.650;2023-07-13T10:47:44;98128.72;;;28.88;35.17
59194;BME280;44967;48.598;15.650;2023-07-13T10:50:24;98124.72;;;29.25;34.35
59194;BME280;44967;48.598;15.650;2023-07-13T10:53:17;98120.63;;;29.21;35.19
59194;BME280;44967;48.598;15.650;2023-07-13T10:58:22;98123.06;;;28.40;36.65
59194;BME280;44967;48.598;15.650;2023-07-13T11:01:06;98122.00;;;28.25;36.39
59194;BME280;44967;48.598;15.650;2023-07-13T11:03:56;98130.53;;;27.86;36.86
59194;BME280;44967;48.598;15.650;2023-07-13T11:08:57;98132.56;;;27.84;36.76
59194;BME280;44967;48.598;15.650;2023-07-13T11:18:51;98123.69;;;27.82;36.73
59194;BME280;44967;48.598;15.650;2023-07-13T11:21:22;98119.22;;;28.17;37.53
59194;BME280;44967;48.598;15.650;2023-07-13T11:24:02;98115.03;;;28.04;35.99
59194;BME280;44967;48.598;15.650;2023-07-13T11:31:52;98122.34;;;28.64;35.80
59194;BME280;44967;48.598;15.650;2023-07-13T11:34:27;98123.47;;;28.87;34.92
59194;BME280;44967;48.598;15.650;2023-07-13T11:36:56;98127.88;;;28.54;34.68
59194;BME280;44967;48.598;15.650;2023-07-13T11:39:32;98129.03;;;28.43;35.09
59194;BME280;44967;48.598;15.650;2023-07-13T11:42:01;98131.00;;;28.33;35.09
59194;BME280;44967;48.598;15.650;2023-07-13T11:44:30;98125.28;;;28.10;34.92
59194;BME280;44967;48.598;15.650;2023-07-13T11:46:58;98126.34;;;28.18;35.30
59194;BME280;44967;48.598;15.650;2023-07-13T11:49:30;98122.16;;;28.05;35.87
59194;BME280;44967;48.598;15.650;2023-07-13T11:51:58;98118.56;;;28.05;35.80
59194;BME280;44967;48.598;15.650;2023-07-13T11:54:43;98125.81;;;28.14;35.12
59194;BME280;44967;48.598;15.650;2023-07-13T11:57:27;98110.94;;;28.00;35.79
59194;BME280;44967;48.598;15.650;2023-07-13T11:59:55;98108.91;;;28.02;36.13
59194;BME280;44967;48.598;15.650;2023-07-13T12:02:29;98098.94;;;28.45;35.45
59194;BME280;44967;48.598;15.650;2023-07-13T12:04:57;98103.81;;;28.67;35.23
59194;BME280;44967;48.598;15.650;2023-07-13T12:07:24;98103.19;;;28.81;34.90
59194;BME280;44967;48.598;15.650;2023-07-13T12:09:49;98096.72;;;28.32;33.92
59194;BME280;44967;48.598;15.650;2023-07-13T12:12:28;98097.59;;;28.49;34.26
59194;BME280;44967;48.598;15.650;2023-07-13T12:14:54;98095.97;;;28.56;34.18
59194;BME280;44967;48.598;15.650;2023-07-13T12:17:22;98091.66;;;28.79;33.90
59194;BME280;44967;48.598;15.650;2023-07-13T12:19:50;98082.81;;;28.85;34.32
59194;BME280;44967;48.598;15.650;2023-07-13T12:22:18;98087.81;;;28.56;33.72
59194;BME280;44967;48.598;15.650;2023-07-13T12:24:45;98083.69;;;29.02;33.21
59194;BME280;44967;48.598;15.650;2023-07-13T12:27:23;98075.72;;;29.25;32.88
59194;BME280;44967;48.598;15.650;2023-07-13T12:30:00;98071.34;;;29.56;32.57
59194;BME280;44967;48.598;15.650;2023-07-13T12:32:26;98070.31;;;29.49;33.13
59194;BME280;44967;48.598;15.650;2023-07-13T12:34:55;98062.16;;;29.57;33.59
59194;BME280;44967;48.598;15.650;2023-07-13T12:37:21;98064.88;;;29.41;32.73
59194;BME280;44967;48.598;15.650;2023-07-13T12:39:48;98052.63;;;29.45;31.58
59194;BME280;44967;48.598;15.650;2023-07-13T12:42:29;98054.59;;;28.86;32.02
59194;BME280;44967;48.598;15.650;2023-07-13T12:45:18;98047.81;;;28.98;32.33
59194;BME280;44967;48.598;15.650;2023-07-13T12:47:50;98050.88;;;29.20;32.73
59194;BME280;44967;48.598;15.650;2023-07-13T12:50:23;98047.13;;;29.13;32.08
59194;BME280;44967;48.598;15.650;2023-07-13T12:53:01;98048.50;;;29.17;31.88
59194;BME280;44967;48.598;15.650;2023-07-13T12:55:29;98049.84;;;29.13;32.28
59194;BME280;44967;48.598;15.650;2023-07-13T12:57:59;98052.59;;;29.21;32.76
59194;BME280;44967;48.598;15.650;2023-07-13T13:00:31;98053.25;;;28.90;32.23
59194;BME280;44967;48.598;15.650;2023-07-13T13:05:41;98039.47;;;29.00;31.51
59194;BME280;44967;48.598;15.650;2023-07-13T13:08:11;98042.53;;;29.05;32.20
59194;BME280;44967;48.598;15.650;2023-07-13T13:10:37;98032.16;;;29.09;32.86
59194;BME280;44967;48.598;15.650;2023-07-13T13:13:03;98026.06;;;29.15;33.43
59194;BME280;44967;48.598;15.650;2023-07-13T13:15:29;98019.41;;;29.17;33.28
59194;BME280;44967;48.598;15.650;2023-07-13T13:17:56;98027.06;;;29.14;33.30
59194;BME280;44967;48.598;15.650;2023-07-13T13:20:25;98015.66;;;29.02;34.16
59194;BME280;44967;48.598;15.650;2023-07-13T13:22:51;98016.00;;;28.83;33.35
59194;BME280;44967;48.598;15.650;2023-07-13T13:25:18;98020.22;;;28.85;33.05
59194;BME280;44967;48.598;15.650;2023-07-13T13:27:44;98011.06;;;28.86;33.59
59194;BME280;44967;48.598;15.650;2023-07-13T13:30:19;98010.19;;;28.70;34.26
59194;BME280;44967;48.598;15.650;2023-07-13T13:32:47;98017.50;;;28.85;34.63
59194;BME280;44967;48.598;15.650;2023-07-13T13:35:15;98010.56;;;29.07;33.89
59194;BME280;44967;48.598;15.650;2023-07-13T13:37:40;98009.88;;;29.13;34.05